Strona główna
METAR-TAF:

METAR-TAF

Lotnisko :

Wiscasset Airport

Wiscasset, Maine, Stany Zjednoczone

Szerokość geograficzna: 43-57-49N, Długość geograficzna: 069-42-42W, wysokość: 20 m

Aktualna obserwacja pogody

Raport powstał 29 minut temu, godzina 00:53 UTC
Cisza
Temperatura -12°C
Wilgotność 66%
Ciśnienie 1024 hPa
Widzialność: 16.1 km
bezchmurnie

METAR: KIWI 210053Z AUTO 00000KT 10SM CLR M12/M17 A3024 RMK AO2 SLP240 T11171172

czas: 20:22 (01:22 UTC)


TAF: brakujący

Obserwacja i prognoza pogody dla ponad 4000 lotnisk (raport METAR i TAF).

Dostępne stacje oznaczono żółtymi i czerwonymi punktami na mapie.

Najedź kursorem aby zobaczyć nazwę stacji.

Kliknij aby zobaczyć obserwacje i prognozy pogody.

Aby zmienić mapę: kliknij na zielony przycisk z czarnym krzyżykiem, aby powiększyć; na zielony przycisk z myślnikiem, aby pomniejszyć; na zielone strzałki, aby przejść do map sąsiednich.


METAR-TAF: